createdAt,value
2018-12-06T00:01:36.822Z,7.90
2018-12-06T00:04:06.517Z,7.90
2018-12-06T00:06:36.128Z,7.90
2018-12-06T00:09:06.175Z,7.80
2018-12-06T00:11:37.405Z,7.80
2018-12-06T00:14:08.010Z,7.80
2018-12-06T00:16:37.710Z,7.80
2018-12-06T00:19:09.237Z,7.80
2018-12-06T00:21:39.004Z,7.80
2018-12-06T00:24:08.648Z,7.80
2018-12-06T00:26:38.303Z,7.80
2018-12-06T00:29:07.985Z,7.80
2018-12-06T00:31:37.771Z,7.80
2018-12-06T00:34:08.833Z,7.80
2018-12-06T00:36:38.684Z,7.80
2018-12-06T00:39:08.893Z,7.80
2018-12-06T00:41:38.495Z,7.80
2018-12-06T00:44:08.213Z,7.80
2018-12-06T00:46:37.847Z,7.90
2018-12-06T00:49:07.483Z,7.80
2018-12-06T00:51:37.154Z,7.80
2018-12-06T00:54:06.807Z,7.80
2018-12-06T00:56:36.427Z,7.80
2018-12-06T00:59:06.140Z,7.80
2018-12-06T01:01:35.824Z,7.90
2018-12-06T01:04:05.509Z,7.80
2018-12-06T01:06:35.181Z,7.90
2018-12-06T01:09:06.217Z,7.80
2018-12-06T01:11:37.276Z,7.80
2018-12-06T01:14:07.618Z,7.80
2018-12-06T01:16:37.810Z,7.80
2018-12-06T01:19:07.546Z,7.80
2018-12-06T01:21:37.978Z,7.80
2018-12-06T01:24:07.703Z,7.80
2018-12-06T01:26:37.362Z,7.80
2018-12-06T01:29:07.922Z,7.90
2018-12-06T01:31:37.572Z,7.80
2018-12-06T01:34:07.208Z,7.80
2018-12-06T01:36:36.834Z,7.80
2018-12-06T01:39:07.097Z,7.90
2018-12-06T01:41:37.810Z,7.90
2018-12-06T01:44:07.463Z,7.90
2018-12-06T01:46:37.709Z,7.90
2018-12-06T01:49:07.490Z,7.90
2018-12-06T01:51:37.162Z,7.90
2018-12-06T01:54:06.922Z,7.90
2018-12-06T01:56:38.046Z,8.00
2018-12-06T01:59:09.135Z,8.00
2018-12-06T02:01:39.003Z,8.00
2018-12-06T02:04:08.677Z,8.10
2018-12-06T02:06:38.543Z,8.10
2018-12-06T02:09:10.202Z,8.20
2018-12-06T02:11:40.668Z,8.20
2018-12-06T02:14:10.642Z,8.30
2018-12-06T02:16:40.320Z,8.30
2018-12-06T02:19:10.028Z,8.30
2018-12-06T02:21:39.708Z,8.30
2018-12-06T02:24:09.386Z,8.30
2018-12-06T02:26:39.063Z,8.30
2018-12-06T02:29:08.717Z,8.30
2018-12-06T02:31:38.403Z,8.30
2018-12-06T02:34:08.620Z,8.30
2018-12-06T02:36:38.375Z,8.40
2018-12-06T02:39:08.606Z,8.40
2018-12-06T02:41:38.871Z,8.40
2018-12-06T02:44:08.696Z,8.50
2018-12-06T02:46:38.336Z,8.50
2018-12-06T02:49:08.977Z,8.50
2018-12-06T02:51:38.667Z,8.50
2018-12-06T02:54:08.411Z,8.50
2018-12-06T02:56:38.039Z,8.50
2018-12-06T02:59:07.669Z,8.50
2018-12-06T03:01:37.297Z,8.50
2018-12-06T03:04:07.528Z,8.50
2018-12-06T03:06:37.206Z,8.50
2018-12-06T03:09:06.866Z,8.50
2018-12-06T03:11:38.618Z,8.60
2018-12-06T03:14:08.357Z,8.60
2018-12-06T03:16:38.087Z,8.60
2018-12-06T03:19:07.850Z,8.60
2018-12-06T03:21:37.526Z,8.70
2018-12-06T03:24:07.183Z,8.60
2018-12-06T03:26:37.333Z,8.70
2018-12-06T03:29:07.042Z,8.70
2018-12-06T03:31:36.675Z,8.70
2018-12-06T03:34:06.466Z,8.70
2018-12-06T03:36:36.161Z,8.70
2018-12-06T03:39:07.743Z,8.70
2018-12-06T03:41:37.407Z,8.80
2018-12-06T03:44:07.062Z,8.90
2018-12-06T03:46:38.133Z,8.90
2018-12-06T03:49:07.784Z,8.90
2018-12-06T03:51:38.826Z,8.90
2018-12-06T03:54:08.643Z,9.00
2018-12-06T03:56:38.288Z,9.00
2018-12-06T03:59:07.964Z,9.00
2018-12-06T04:01:38.146Z,8.90
2018-12-06T04:04:08.478Z,8.90
2018-12-06T04:06:38.115Z,8.90
2018-12-06T04:09:08.097Z,8.80
2018-12-06T04:11:37.825Z,8.80
2018-12-06T04:14:07.462Z,8.80
2018-12-06T04:16:37.453Z,8.70
2018-12-06T04:19:07.781Z,8.70
2018-12-06T04:21:37.465Z,8.70
2018-12-06T04:24:07.112Z,8.70
2018-12-06T04:26:37.291Z,8.70
2018-12-06T04:29:06.971Z,8.70
2018-12-06T04:31:37.902Z,8.70
2018-12-06T04:34:09.594Z,8.80
2018-12-06T04:36:39.507Z,8.80
2018-12-06T04:39:09.174Z,8.80
2018-12-06T04:41:38.879Z,8.80
2018-12-06T04:44:08.514Z,8.80
2018-12-06T04:46:38.216Z,8.80
2018-12-06T04:49:07.829Z,8.80
2018-12-06T04:51:37.549Z,8.80
2018-12-06T04:54:07.215Z,8.80
2018-12-06T04:56:36.938Z,8.90
2018-12-06T04:59:06.566Z,8.90
2018-12-06T05:01:37.046Z,8.90
2018-12-06T05:04:07.736Z,8.90
2018-12-06T05:06:37.420Z,8.90
2018-12-06T05:09:07.765Z,8.90
2018-12-06T05:11:37.487Z,8.90
2018-12-06T05:14:07.250Z,8.90
2018-12-06T05:16:36.919Z,8.90
2018-12-06T05:19:06.677Z,8.90
2018-12-06T05:21:36.356Z,8.90
2018-12-06T05:24:06.081Z,8.90
2018-12-06T05:26:35.972Z,8.90
2018-12-06T05:29:05.654Z,8.80
2018-12-06T05:31:35.996Z,8.80
2018-12-06T05:34:05.786Z,8.80
2018-12-06T05:36:35.570Z,8.80
2018-12-06T05:39:07.594Z,8.80
2018-12-06T05:41:37.294Z,8.80
2018-12-06T05:44:07.036Z,8.80
2018-12-06T05:46:36.662Z,8.90
2018-12-06T05:49:06.402Z,8.80
2018-12-06T05:51:37.279Z,8.90
2018-12-06T05:54:07.043Z,8.90
2018-12-06T05:56:36.802Z,8.90
2018-12-06T05:59:06.493Z,8.80
2018-12-06T06:01:36.141Z,8.80
2018-12-06T06:04:06.065Z,8.80
2018-12-06T06:06:35.964Z,8.80
2018-12-06T06:09:07.374Z,8.90
2018-12-06T06:11:37.062Z,8.90
2018-12-06T06:14:07.650Z,8.90
2018-12-06T06:16:37.386Z,8.90
2018-12-06T06:19:07.071Z,8.90
2018-12-06T06:21:37.416Z,8.90
2018-12-06T06:24:07.083Z,9.00
2018-12-06T06:26:36.884Z,9.00
2018-12-06T06:29:06.550Z,9.00
2018-12-06T06:31:36.241Z,9.00
2018-12-06T06:34:05.984Z,9.00
2018-12-06T06:36:35.720Z,9.00
2018-12-06T06:39:07.671Z,9.10
2018-12-06T06:41:37.369Z,9.10
2018-12-06T06:44:07.047Z,9.10
2018-12-06T06:46:36.709Z,9.10
2018-12-06T06:49:13.584Z,9.20
2018-12-06T06:51:38.232Z,9.20
2018-12-06T06:54:08.061Z,9.20
2018-12-06T06:56:38.678Z,9.20
2018-12-06T06:59:08.425Z,9.20
2018-12-06T07:01:38.317Z,9.20
2018-12-06T07:04:07.994Z,9.30
2018-12-06T07:06:37.685Z,9.30
2018-12-06T07:09:09.173Z,9.30
2018-12-06T07:11:38.849Z,9.30
2018-12-06T07:14:08.536Z,9.40
2018-12-06T07:16:38.606Z,9.40
2018-12-06T07:19:09.917Z,9.40
2018-12-06T07:21:39.637Z,9.40
2018-12-06T07:24:10.085Z,9.50
2018-12-06T07:26:39.807Z,9.50
2018-12-06T07:29:09.576Z,9.50
2018-12-06T07:31:39.361Z,9.60
2018-12-06T07:34:09.221Z,9.60
2018-12-06T07:36:39.361Z,9.60
2018-12-06T07:39:09.202Z,9.60
2018-12-06T07:41:39.597Z,9.60
2018-12-06T07:44:09.263Z,9.60
2018-12-06T07:46:38.993Z,9.60
2018-12-06T07:49:08.715Z,9.60
2018-12-06T07:51:38.416Z,9.60
2018-12-06T07:54:08.088Z,9.60
2018-12-06T07:56:37.882Z,9.60
2018-12-06T07:59:07.592Z,9.60
2018-12-06T08:01:37.241Z,9.70
2018-12-06T08:04:07.735Z,9.60
2018-12-06T08:06:37.557Z,9.70
2018-12-06T08:09:09.206Z,9.70
2018-12-06T08:11:38.927Z,9.70
2018-12-06T08:14:08.769Z,9.70
2018-12-06T08:16:38.469Z,9.70
2018-12-06T08:19:08.184Z,9.70
2018-12-06T08:21:37.936Z,9.80
2018-12-06T08:24:07.598Z,9.80
2018-12-06T08:26:37.242Z,9.80
2018-12-06T08:29:07.023Z,9.80
2018-12-06T08:31:36.699Z,9.80
2018-12-06T08:34:06.660Z,9.90
2018-12-06T08:36:36.419Z,9.80
2018-12-06T08:39:07.097Z,9.90
2018-12-06T08:41:36.758Z,9.90
2018-12-06T08:44:06.486Z,9.90
2018-12-06T08:46:36.221Z,10.00
2018-12-06T08:49:05.939Z,9.90
2018-12-06T08:52:13.728Z,10.00
2018-12-06T08:54:43.374Z,10.00
2018-12-06T08:57:13.096Z,10.00
2018-12-06T08:59:42.797Z,10.00
2018-12-06T09:02:12.757Z,10.00
2018-12-06T09:04:42.445Z,10.10
2018-12-06T09:07:12.156Z,10.10
2018-12-06T09:09:41.862Z,10.10
2018-12-06T09:12:11.629Z,10.10
2018-12-06T09:14:41.327Z,10.10
2018-12-06T09:17:11.443Z,10.10
2018-12-06T09:19:41.894Z,10.10
2018-12-06T09:22:11.560Z,10.10
2018-12-06T09:24:41.856Z,10.10
2018-12-06T09:27:11.545Z,10.20
2018-12-06T09:29:41.235Z,10.20
2018-12-06T09:32:11.035Z,10.30
2018-12-06T09:34:40.699Z,10.30
2018-12-06T09:37:10.498Z,10.30
2018-12-06T09:39:40.233Z,10.30
2018-12-06T09:42:10.092Z,10.30
2018-12-06T09:44:39.767Z,10.30
2018-12-06T09:47:09.429Z,10.40
2018-12-06T09:49:39.139Z,10.40
2018-12-06T09:52:09.324Z,10.40
2018-12-06T09:54:39.581Z,10.30
2018-12-06T09:57:09.550Z,10.40
2018-12-06T09:59:39.322Z,10.40
2018-12-06T10:02:09.699Z,10.40
2018-12-06T10:04:39.891Z,10.40
2018-12-06T10:07:09.618Z,10.50
2018-12-06T10:09:39.313Z,10.40
2018-12-06T10:12:09.570Z,10.50
2018-12-06T10:14:39.232Z,10.50
2018-12-06T10:17:10.238Z,10.60
2018-12-06T10:19:39.922Z,10.60
2018-12-06T10:22:09.623Z,10.70
2018-12-06T10:24:39.347Z,10.70
2018-12-06T10:27:09.622Z,10.70
2018-12-06T10:29:39.481Z,10.70
2018-12-06T10:32:09.271Z,10.80
2018-12-06T10:34:39.085Z,10.80
2018-12-06T10:37:08.731Z,10.90
2018-12-06T10:39:38.420Z,10.90
2018-12-06T10:42:08.090Z,10.90
2018-12-06T10:44:37.807Z,10.90
2018-12-06T10:47:07.499Z,11.00
2018-12-06T10:49:37.427Z,11.00
2018-12-06T10:52:07.201Z,11.00
2018-12-06T10:54:38.280Z,11.00
2018-12-06T10:57:07.985Z,11.00
2018-12-06T10:59:37.692Z,11.00
2018-12-06T11:02:13.615Z,11.10
2018-12-06T11:04:43.394Z,11.10
2018-12-06T11:07:13.070Z,11.10
2018-12-06T11:09:42.819Z,11.10
2018-12-06T11:12:12.675Z,11.10
2018-12-06T11:14:42.558Z,11.10
2018-12-06T11:17:12.327Z,11.10
2018-12-06T11:19:42.003Z,11.10
2018-12-06T11:22:12.365Z,11.20
2018-12-06T11:24:42.104Z,11.20
2018-12-06T11:27:11.789Z,11.20
2018-12-06T11:29:41.506Z,11.20
2018-12-06T11:32:11.164Z,11.20
2018-12-06T11:34:40.833Z,11.20
2018-12-06T11:37:11.034Z,11.20
2018-12-06T11:39:40.898Z,11.20
2018-12-06T11:42:11.141Z,11.20
2018-12-06T11:44:41.146Z,11.20
2018-12-06T11:47:11.623Z,11.20
2018-12-06T11:49:41.454Z,11.30
2018-12-06T11:52:11.192Z,11.30
2018-12-06T11:54:40.893Z,11.30
2018-12-06T11:57:10.584Z,11.30
2018-12-06T11:59:40.333Z,11.30
2018-12-06T12:02:10.345Z,11.40
2018-12-06T12:04:40.433Z,11.40
2018-12-06T12:07:10.702Z,11.40
2018-12-06T12:09:40.683Z,11.40
2018-12-06T12:12:10.355Z,11.40
2018-12-06T12:14:42.091Z,11.40
2018-12-06T12:17:11.916Z,11.50
2018-12-06T12:19:42.088Z,11.50
2018-12-06T12:22:11.839Z,11.40
2018-12-06T12:24:41.564Z,11.40
2018-12-06T12:27:11.393Z,11.40
2018-12-06T12:29:41.061Z,11.40
2018-12-06T12:32:11.419Z,11.40
2018-12-06T12:34:41.113Z,11.40
2018-12-06T12:37:10.905Z,11.40
2018-12-06T12:39:40.580Z,11.40
2018-12-06T12:42:10.420Z,11.40
2018-12-06T12:44:40.092Z,11.40
2018-12-06T12:47:09.772Z,11.40
2018-12-06T12:49:39.498Z,11.40
2018-12-06T12:52:09.244Z,11.40
2018-12-06T12:54:38.922Z,11.40
2018-12-06T12:57:08.621Z,11.40
2018-12-06T12:59:38.358Z,11.40
2018-12-06T13:02:08.172Z,11.50
2018-12-06T13:04:37.911Z,11.50
2018-12-06T13:07:11.617Z,11.50
2018-12-06T13:09:41.503Z,11.50
2018-12-06T13:12:11.262Z,11.60
2018-12-06T13:14:41.452Z,11.60
2018-12-06T13:17:11.145Z,11.60
2018-12-06T13:19:42.107Z,11.60
2018-12-06T13:22:11.777Z,11.60
2018-12-06T13:24:42.614Z,11.60
2018-12-06T13:27:12.458Z,11.60
2018-12-06T13:29:42.134Z,11.60
2018-12-06T13:32:11.856Z,11.70
2018-12-06T13:34:41.579Z,11.70
2018-12-06T13:37:11.268Z,11.70
2018-12-06T13:39:41.159Z,11.60
2018-12-06T13:42:10.994Z,11.70
2018-12-06T13:44:41.146Z,11.70
2018-12-06T13:47:11.003Z,11.70
2018-12-06T13:49:41.930Z,11.70
2018-12-06T13:52:20.925Z,11.70
2018-12-06T13:54:51.034Z,11.70
2018-12-06T13:57:20.726Z,11.70
2018-12-06T13:59:50.346Z,11.70
2018-12-06T14:02:20.314Z,11.70
2018-12-06T14:04:50.040Z,11.70
2018-12-06T14:07:19.863Z,11.70
2018-12-06T14:09:49.555Z,11.70
2018-12-06T14:12:19.321Z,11.70
2018-12-06T14:14:51.552Z,11.70
2018-12-06T14:17:21.285Z,11.70
2018-12-06T14:19:51.047Z,11.70
2018-12-06T14:22:21.565Z,11.70
2018-12-06T14:24:51.293Z,11.70
2018-12-06T14:27:20.961Z,11.70
2018-12-06T14:29:50.877Z,11.70
2018-12-06T14:32:20.727Z,11.70
2018-12-06T14:34:50.460Z,11.70
2018-12-06T14:37:20.246Z,11.80
2018-12-06T14:39:49.958Z,11.80
2018-12-06T14:42:20.254Z,11.70
2018-12-06T14:44:49.933Z,11.80
2018-12-06T14:47:20.333Z,11.70
2018-12-06T14:49:50.076Z,11.70
2018-12-06T14:52:19.940Z,11.80
2018-12-06T14:54:49.732Z,11.80
2018-12-06T14:57:19.566Z,11.80
2018-12-06T14:59:49.336Z,11.80
2018-12-06T15:02:24.647Z,11.80
2018-12-06T15:04:54.450Z,11.80
2018-12-06T15:07:24.206Z,11.80
2018-12-06T15:09:53.970Z,11.80
2018-12-06T15:12:23.707Z,11.80
2018-12-06T15:14:53.422Z,11.80
2018-12-06T15:17:23.198Z,11.80
2018-12-06T15:19:52.936Z,11.80
2018-12-06T15:22:28.765Z,11.80
2018-12-06T15:24:58.930Z,11.80
2018-12-06T15:27:28.956Z,11.80
2018-12-06T15:29:58.799Z,11.80
2018-12-06T15:32:28.652Z,11.70
2018-12-06T15:34:58.349Z,11.70
2018-12-06T15:37:28.052Z,11.70
2018-12-06T15:39:57.747Z,11.70
2018-12-06T15:42:27.466Z,11.70
2018-12-06T15:44:58.310Z,11.60
2018-12-06T15:47:27.973Z,11.60
2018-12-06T15:49:57.660Z,11.60
2018-12-06T15:52:27.472Z,11.60
2018-12-06T15:54:57.670Z,11.60
2018-12-06T15:57:27.479Z,11.60
2018-12-06T15:59:57.286Z,11.60
2018-12-06T16:02:26.986Z,11.70
2018-12-06T16:04:56.789Z,11.70
2018-12-06T16:07:26.757Z,11.80
2018-12-06T16:09:56.605Z,11.70
2018-12-06T16:12:44.883Z,11.80
2018-12-06T16:15:15.313Z,11.70
2018-12-06T16:17:45.109Z,11.80
2018-12-06T16:20:14.924Z,11.80
2018-12-06T16:22:44.783Z,11.80
2018-12-06T16:25:14.519Z,11.80
2018-12-06T16:27:44.299Z,11.80
2018-12-06T16:30:14.147Z,11.90
2018-12-06T16:32:43.963Z,11.90
2018-12-06T16:35:14.187Z,11.90
2018-12-06T16:37:43.934Z,11.90
2018-12-06T16:40:13.755Z,12.00
2018-12-06T16:42:44.191Z,12.00
2018-12-06T16:45:14.399Z,12.00
2018-12-06T16:47:44.143Z,12.00
2018-12-06T16:50:14.153Z,12.00
2018-12-06T16:52:44.840Z,12.00
2018-12-06T16:55:14.679Z,12.00
2018-12-06T16:57:44.523Z,12.00
2018-12-06T17:00:14.847Z,12.00
2018-12-06T17:02:44.758Z,12.00
2018-12-06T17:05:14.691Z,11.90
2018-12-06T17:07:44.511Z,12.00
2018-12-06T17:10:14.384Z,12.00
2018-12-06T17:12:44.166Z,11.90
2018-12-06T17:15:13.966Z,11.90
2018-12-06T17:17:43.679Z,11.90
2018-12-06T17:20:13.425Z,11.90
2018-12-06T17:22:43.080Z,11.90
2018-12-06T17:25:13.044Z,12.00
2018-12-06T17:27:42.743Z,12.00
2018-12-06T17:30:13.813Z,12.00
2018-12-06T17:32:44.438Z,11.90
2018-12-06T17:35:14.187Z,11.90
2018-12-06T17:37:44.027Z,11.90
2018-12-06T17:40:13.914Z,11.90
2018-12-06T17:42:43.779Z,11.90
2018-12-06T17:48:10.520Z,11.90
2018-12-06T17:50:40.261Z,11.90
2018-12-06T17:53:10.624Z,11.90
2018-12-06T17:55:54.886Z,11.90
2018-12-06T17:58:24.661Z,11.90
2018-12-06T18:00:54.929Z,11.90
2018-12-06T18:03:24.659Z,11.90
2018-12-06T18:05:54.406Z,11.90
2018-12-06T18:08:24.874Z,11.90
2018-12-06T18:10:54.847Z,11.90
2018-12-06T18:13:24.759Z,12.00
2018-12-06T18:15:54.610Z,12.00
2018-12-06T18:18:24.471Z,12.00
2018-12-06T18:20:54.905Z,12.10
2018-12-06T18:23:24.930Z,12.00
2018-12-06T18:25:54.717Z,12.00
2018-12-06T18:28:25.135Z,12.10
2018-12-06T18:30:55.065Z,12.10
2018-12-06T18:33:24.727Z,12.10
2018-12-06T18:36:06.706Z,12.10
2018-12-06T18:38:36.473Z,12.10
2018-12-06T18:41:06.142Z,12.10
2018-12-06T18:43:36.045Z,12.10
2018-12-06T18:46:05.908Z,12.10
2018-12-06T18:48:37.216Z,12.10
2018-12-06T18:51:08.082Z,12.10
2018-12-06T18:53:38.051Z,12.10
2018-12-06T18:56:07.955Z,12.10
2018-12-06T18:58:38.278Z,12.10
2018-12-06T19:01:08.102Z,12.10
2018-12-06T19:03:39.075Z,12.00
2018-12-06T19:06:09.533Z,12.10
2018-12-06T19:08:39.195Z,12.00
2018-12-06T19:11:08.960Z,12.00
2018-12-06T19:13:38.778Z,12.00
2018-12-06T19:16:08.501Z,11.90
2018-12-06T19:18:38.266Z,11.90
2018-12-06T19:21:08.371Z,11.90
2018-12-06T19:23:38.104Z,11.90
2018-12-06T19:26:08.183Z,11.90
2018-12-06T19:28:38.413Z,11.80
2018-12-06T19:31:08.288Z,11.80
2018-12-06T19:33:38.349Z,11.80
2018-12-06T19:36:08.911Z,11.80
2018-12-06T19:38:38.786Z,11.80
2018-12-06T19:41:11.250Z,11.80
2018-12-06T19:43:41.129Z,11.80
2018-12-06T20:02:44.309Z,11.90
2018-12-06T20:05:14.495Z,12.10
2018-12-06T20:07:44.504Z,12.10
2018-12-06T20:10:14.658Z,12.10
2018-12-06T20:12:44.631Z,12.10
2018-12-06T20:15:14.636Z,12.20
2018-12-06T20:17:44.671Z,12.20
2018-12-06T20:20:14.577Z,12.20
2018-12-06T20:22:44.402Z,12.20
2018-12-06T20:25:14.278Z,12.20
2018-12-06T20:27:45.306Z,12.20
2018-12-06T20:30:15.157Z,12.30
2018-12-06T20:32:45.679Z,12.30
2018-12-06T20:35:15.613Z,12.30
2018-12-06T20:37:45.462Z,12.30
2018-12-06T20:40:15.545Z,12.40
2018-12-06T20:42:45.482Z,12.30
2018-12-06T20:45:15.318Z,12.30
2018-12-06T20:47:45.332Z,12.40
2018-12-06T20:53:14.157Z,12.40
2018-12-06T20:55:44.839Z,12.40
2018-12-06T20:58:15.208Z,12.40
2018-12-06T21:00:45.249Z,12.40
2018-12-06T21:03:15.089Z,12.40
2018-12-06T21:05:45.199Z,12.40
2018-12-06T21:08:15.014Z,12.40
2018-12-06T21:10:46.608Z,12.40
2018-12-06T21:13:16.529Z,12.40
2018-12-06T21:15:46.712Z,12.40
2018-12-06T21:18:16.590Z,12.40
2018-12-06T21:20:47.011Z,12.40
2018-12-06T21:23:16.890Z,12.40
2018-12-06T21:25:46.876Z,12.40
2018-12-06T21:28:17.311Z,12.50
2018-12-06T21:30:47.387Z,12.50
2018-12-06T21:33:17.671Z,12.40
2018-12-06T21:35:49.058Z,12.40
2018-12-06T21:38:19.624Z,12.40
2018-12-06T21:40:49.379Z,12.40
2018-12-06T21:43:38.686Z,12.40
2018-12-06T21:46:14.527Z,12.40
2018-12-06T21:48:44.415Z,12.40
2018-12-06T21:51:14.129Z,12.40
2018-12-06T21:53:43.940Z,12.40
2018-12-06T21:56:13.671Z,12.40
2018-12-06T21:58:43.464Z,12.30
2018-12-06T22:01:13.410Z,12.30
2018-12-06T22:03:43.339Z,12.20
2018-12-06T22:06:13.324Z,12.10
2018-12-06T22:08:43.063Z,12.10
2018-12-06T22:11:12.789Z,12.00
2018-12-06T22:13:42.538Z,12.00
2018-12-06T22:16:12.207Z,12.00
2018-12-06T22:18:43.337Z,11.90
2018-12-06T22:21:13.258Z,11.90
2018-12-06T22:23:43.586Z,11.80
2018-12-06T22:26:13.258Z,11.80
2018-12-06T22:28:43.178Z,11.80
2018-12-06T22:31:12.907Z,11.80
2018-12-06T22:33:42.809Z,11.80
2018-12-06T22:36:13.233Z,11.80
2018-12-06T22:38:43.007Z,11.70
2018-12-06T22:41:12.728Z,11.70
2018-12-06T22:43:42.437Z,11.70
2018-12-06T22:46:13.462Z,11.70
2018-12-06T22:51:32.151Z,11.70
2018-12-06T22:54:02.002Z,11.70
2018-12-06T22:56:47.109Z,11.70
2018-12-06T22:59:22.029Z,11.70
2018-12-06T23:01:51.796Z,11.70
2018-12-06T23:04:21.637Z,11.70
2018-12-06T23:06:52.712Z,11.80
2018-12-06T23:09:22.542Z,11.80
2018-12-06T23:11:52.883Z,11.80
2018-12-06T23:14:22.527Z,11.80
2018-12-06T23:17:02.685Z,11.80
2018-12-06T23:19:32.574Z,11.80
2018-12-06T23:22:02.300Z,11.80
2018-12-06T23:24:32.848Z,11.80
2018-12-06T23:27:02.606Z,11.80
2018-12-06T23:29:32.427Z,11.80
2018-12-06T23:32:02.141Z,11.70
2018-12-06T23:34:31.843Z,11.70
2018-12-06T23:37:01.560Z,11.60
2018-12-06T23:39:31.275Z,11.60
2018-12-06T23:42:01.117Z,11.60
2018-12-06T23:44:30.922Z,11.70
2018-12-06T23:47:00.766Z,11.70
2018-12-06T23:49:31.034Z,11.70
2018-12-06T23:52:00.835Z,11.70
2018-12-06T23:54:30.550Z,11.70
2018-12-06T23:57:00.233Z,11.70
2018-12-06T23:59:29.871Z,11.70
